Time;durP1;ratioP1;P1;durP2;ratioP2;P2;SDS_P1;SDS_P2;PMS_P1;PMS_P2;Temp;Humidity;BMP_temperature;BMP_pressure;BME280_temperature;BME280_humidity;BME280_pressure;Samples;Min_cycle;Max_cycle;Signal;HPM_P1;HPM_P2
2021/07/22 00:00:46;;;;;;;10.07;4.45;;;23.70;74.60;;;;;;5080229;28;20041;-71
2021/07/22 00:03:33;;;;;;;8.50;4.38;;;23.50;74.80;;;;;;5120254;28;20027;-71
2021/07/22 00:06:08;;;;;;;12.10;5.47;;;23.30;75.60;;;;;;5120002;28;20053;-71
2021/07/22 00:08:43;;;;;;;15.05;5.30;;;23.10;76.40;;;;;;5120388;28;20015;-71
2021/07/22 00:11:15;;;;;;;16.02;4.88;;;23.10;76.50;;;;;;5120087;28;20027;-71
2021/07/22 00:14:04;;;;;;;7.78;4.53;;;23.10;76.60;;;;;;5118908;28;20036;-71
2021/07/22 00:16:36;;;;;;;9.45;4.82;;;23.10;77.10;;;;;;5115702;28;20042;-71
2021/07/22 00:19:10;;;;;;;8.75;5.00;;;23.10;77.10;;;;;;5120176;28;20354;-71
2021/07/22 00:21:44;;;;;;;8.93;4.47;;;23.10;77.60;;;;;;5120150;28;20102;-71
2021/07/22 00:24:22;;;;;;;8.77;4.70;;;23.00;78.00;;;;;;5120041;28;20050;-71
2021/07/22 00:26:51;;;;;;;7.07;4.93;;;23.00;78.00;;;;;;5099633;28;20424;-71
2021/07/22 00:29:23;;;;;;;12.38;5.32;;;23.00;77.70;;;;;;5119604;28;20408;-71
2021/07/22 00:31:51;;;;;;;8.63;4.88;;;23.10;77.90;;;;;;5119923;28;20016;-71
2021/07/22 00:34:18;;;;;;;10.48;4.75;;;23.20;77.60;;;;;;5119871;28;20110;-71
2021/07/22 00:36:49;;;;;;;8.63;4.75;;;23.20;77.40;;;;;;5119476;28;20043;-71
2021/07/22 00:39:24;;;;;;;11.07;5.00;;;23.10;77.50;;;;;;5119704;28;20076;-71
2021/07/22 00:41:59;;;;;;;8.73;4.93;;;23.10;77.80;;;;;;5119780;28;20350;-71
2021/07/22 00:44:43;;;;;;;8.70;4.78;;;23.10;78.10;;;;;;5119949;28;20051;-71
2021/07/22 00:47:17;;;;;;;11.15;4.70;;;22.90;78.50;;;;;;5119592;28;20032;-71
2021/07/22 00:49:51;;;;;;;8.65;4.70;;;22.90;79.10;;;;;;5102376;28;20080;-71
2021/07/22 00:52:25;;;;;;;8.18;4.40;;;22.90;78.20;;;;;;5119538;28;20028;-71
2021/07/22 00:54:52;;;;;;;10.82;5.10;;;22.80;78.50;;;;;;5119210;28;20411;-71
2021/07/22 00:57:21;;;;;;;7.95;4.60;;;22.90;77.90;;;;;;5101075;28;20031;-71
2021/07/22 00:59:48;;;;;;;8.50;4.63;;;22.90;77.50;;;;;;5118912;28;20446;-71
2021/07/22 01:02:14;;;;;;;8.85;4.80;;;22.90;77.10;;;;;;5119327;28;20027;-71
2021/07/22 01:04:40;;;;;;;11.27;4.40;;;22.90;77.20;;;;;;5119227;28;20054;-71
2021/07/22 01:07:12;;;;;;;11.18;3.92;;;22.90;77.20;;;;;;5119207;28;20103;-71
2021/07/22 01:09:38;;;;;;;7.38;3.90;;;22.90;77.90;;;;;;5118777;28;20427;-71
2021/07/22 01:12:05;;;;;;;7.60;3.78;;;22.80;76.30;;;;;;5118761;28;20053;-71
2021/07/22 01:14:30;;;;;;;7.88;3.58;;;22.80;76.40;;;;;;5118711;28;20034;-71
2021/07/22 01:16:56;;;;;;;6.82;3.78;;;22.80;75.60;;;;;;5118070;28;20047;-71
2021/07/22 01:19:22;;;;;;;9.38;3.67;;;22.80;74.80;;;;;;5118878;28;20020;-71
2021/07/22 01:21:47;;;;;;;10.50;3.58;;;22.80;73.80;;;;;;5115398;28;20036;-71
2021/07/22 01:24:13;;;;;;;11.38;3.70;;;22.70;73.30;;;;;;5118579;28;20055;-71
2021/07/22 01:26:39;;;;;;;11.45;3.63;;;22.70;73.20;;;;;;5118804;28;20074;-71
2021/07/22 01:29:05;;;;;;;15.82;4.32;;;22.70;72.90;;;;;;5118604;28;20049;-71
2021/07/22 01:31:31;;;;;;;12.63;5.57;;;22.50;73.50;;;;;;5118717;28;20055;-71
2021/07/22 01:33:57;;;;;;;11.02;3.85;;;22.50;73.60;;;;;;5118632;28;20027;-71
2021/07/22 01:36:23;;;;;;;12.23;4.05;;;22.50;74.00;;;;;;5118255;28;20084;-71
2021/07/22 01:38:52;;;;;;;8.15;3.92;;;22.30;73.30;;;;;;5117200;28;20019;-71
2021/07/22 01:41:18;;;;;;;6.97;3.53;;;22.30;73.60;;;;;;5118501;28;20036;-71
2021/07/22 01:43:43;;;;;;;7.05;3.63;;;22.20;73.30;;;;;;5118326;28;20059;-71
2021/07/22 01:46:09;;;;;;;8.68;3.70;;;22.10;73.50;;;;;;5118120;28;20016;-71
2021/07/22 01:48:36;;;;;;;8.02;3.08;;;22.00;73.50;;;;;;5118087;28;20112;-71
2021/07/22 01:51:05;;;;;;;10.05;3.53;;;21.90;73.80;;;;;;5118046;28;20102;-71
2021/07/22 01:53:31;;;;;;;8.38;3.70;;;21.90;74.40;;;;;;5118003;28;20030;-71
2021/07/22 01:55:57;;;;;;;6.68;3.95;;;21.90;73.90;;;;;;5118228;28;20031;-71
2021/07/22 01:58:22;;;;;;;10.00;3.45;;;21.90;74.40;;;;;;5117946;28;20327;-71
2021/07/22 02:00:48;;;;;;;7.85;3.78;;;21.90;74.70;;;;;;5117768;28;20081;-71
2021/07/22 02:03:14;;;;;;;10.40;4.38;;;21.90;75.80;;;;;;5118160;28;20024;-71
2021/07/22 02:05:39;;;;;;;8.50;3.60;;;21.90;76.30;;;;;;5118037;28;20407;-71
2021/07/22 02:08:05;;;;;;;8.30;3.92;;;21.90;76.10;;;;;;5117743;28;20342;-71
2021/07/22 02:10:30;;;;;;;8.20;4.20;;;21.80;75.60;;;;;;5117993;28;20019;-73
2021/07/22 02:12:56;;;;;;;8.88;4.95;;;21.80;76.30;;;;;;5117912;28;20061;-71
2021/07/22 02:15:22;;;;;;;8.25;3.95;;;21.80;76.30;;;;;;5117896;28;20097;-71
2021/07/22 02:17:47;;;;;;;12.50;4.13;;;21.80;76.50;;;;;;5117578;28;20365;-71
2021/07/22 02:20:13;;;;;;;9.32;3.83;;;21.80;76.10;;;;;;5117768;28;20019;-71
2021/07/22 02:22:39;;;;;;;11.65;4.25;;;21.80;76.00;;;;;;5117811;28;20027;-71
2021/07/22 02:25:05;;;;;;;12.93;4.35;;;21.90;75.90;;;;;;5117732;28;20020;-71
2021/07/22 02:27:35;;;;;;;8.93;4.20;;;21.90;76.20;;;;;;5117315;28;20439;-71
2021/07/22 02:30:02;;;;;;;13.05;4.38;;;21.90;76.80;;;;;;5117688;28;20027;-71
2021/07/22 02:32:28;;;;;;;8.57;4.32;;;22.00;76.90;;;;;;5117661;28;20051;-71
2021/07/22 02:34:54;;;;;;;9.77;4.80;;;22.00;77.40;;;;;;5117601;28;20408;-71
2021/07/22 02:37:19;;;;;;;7.63;4.15;;;22.00;77.70;;;;;;5117289;28;20035;-71
2021/07/22 02:39:45;;;;;;;7.40;4.40;;;21.90;77.50;;;;;;5117486;28;20023;-71
2021/07/22 02:42:11;;;;;;;6.68;4.53;;;21.90;77.50;;;;;;5117046;28;20069;-71
2021/07/22 02:44:39;;;;;;;7.10;3.70;;;21.80;78.20;;;;;;5117572;28;20040;-71
2021/07/22 02:47:11;;;;;;;9.80;5.38;;;21.80;78.50;;;;;;5117440;28;20024;-71
2021/07/22 02:49:37;;;;;;;13.45;4.70;;;21.90;78.60;;;;;;5116840;28;20034;-71
2021/07/22 02:52:04;;;;;;;8.00;3.97;;;21.90;78.60;;;;;;5117226;28;20113;-71
2021/07/22 02:54:30;;;;;;;9.85;4.47;;;22.00;78.40;;;;;;5117329;28;20019;-71
2021/07/22 02:56:56;;;;;;;8.23;4.20;;;22.00;78.80;;;;;;5116998;28;20031;-71
2021/07/22 02:59:21;;;;;;;7.80;4.30;;;22.00;78.90;;;;;;5117220;28;20031;-71
2021/07/22 03:01:47;;;;;;;9.07;4.22;;;21.90;78.60;;;;;;5117365;28;20053;-71
2021/07/22 03:04:13;;;;;;;9.05;4.35;;;21.90;78.70;;;;;;5117317;28;20023;-71
2021/07/22 03:06:39;;;;;;;10.32;4.85;;;21.90;78.80;;;;;;5117217;28;20033;-71
2021/07/22 03:09:05;;;;;;;9.90;4.50;;;22.00;78.90;;;;;;5116955;28;20095;-71
2021/07/22 03:11:31;;;;;;;9.23;4.68;;;22.00;78.90;;;;;;5117213;28;20105;-71
2021/07/22 03:13:58;;;;;;;7.97;4.70;;;21.90;78.80;;;;;;5117304;28;20032;-71
2021/07/22 03:16:24;;;;;;;8.75;5.45;;;22.00;78.40;;;;;;5117188;28;20359;-71
2021/07/22 03:18:50;;;;;;;8.05;4.82;;;21.90;78.80;;;;;;5117169;28;20020;-71
2021/07/22 03:21:15;;;;;;;14.02;4.85;;;21.90;78.80;;;;;;5116949;28;20056;-71
2021/07/22 03:23:41;;;;;;;13.20;4.63;;;21.90;78.70;;;;;;5117088;28;20300;-71
2021/07/22 03:26:07;;;;;;;8.90;4.60;;;21.90;78.50;;;;;;5117015;28;20030;-71
2021/07/22 03:28:32;;;;;;;10.95;5.40;;;21.90;78.30;;;;;;5117086;28;20472;-71
2021/07/22 03:30:58;;;;;;;9.10;5.05;;;21.90;78.20;;;;;;5116716;28;20323;-71
2021/07/22 03:33:24;;;;;;;14.65;6.13;;;22.00;77.50;;;;;;5116769;28;20023;-71
2021/07/22 03:35:50;;;;;;;8.30;4.70;;;22.00;77.90;;;;;;5116971;28;20069;-71
2021/07/22 03:38:15;;;;;;;9.73;4.95;;;22.10;77.70;;;;;;5117047;28;20024;-71
2021/07/22 03:40:41;;;;;;;13.52;4.70;;;22.10;77.90;;;;;;5116902;28;20035;-71
2021/07/22 03:43:07;;;;;;;11.32;5.15;;;22.20;78.10;;;;;;5116367;28;20064;-71
2021/07/22 03:45:32;;;;;;;6.72;4.40;;;22.20;77.80;;;;;;5116865;28;20020;-71
2021/07/22 03:48:00;;;;;;;8.40;4.32;;;22.20;77.70;;;;;;5116934;28;20430;-71
2021/07/22 03:50:25;;;;;;;7.10;4.30;;;22.20;78.40;;;;;;5116558;28;20051;-71
2021/07/22 03:52:55;;;;;;;14.70;5.25;;;22.20;78.10;;;;;;5116879;28;20082;-71
2021/07/22 03:55:25;;;;;;;11.60;5.22;;;22.20;78.60;;;;;;5116820;28;20023;-71
2021/07/22 03:57:51;;;;;;;9.60;4.18;;;22.20;79.00;;;;;;5116868;28;20081;-71
2021/07/22 04:00:17;;;;;;;8.70;4.53;;;22.10;79.50;;;;;;5116373;28;20312;-71
2021/07/22 04:02:43;;;;;;;7.85;4.25;;;22.00;79.80;;;;;;5118813;28;20028;-71
2021/07/22 04:05:09;;;;;;;10.40;5.45;;;22.00;80.30;;;;;;5120469;28;20430;-71
2021/07/22 04:07:34;;;;;;;8.57;5.13;;;21.80;80.00;;;;;;5120320;28;20058;-71
2021/07/22 04:10:00;;;;;;;6.82;4.35;;;21.80;80.10;;;;;;5120333;28;20023;-71
2021/07/22 04:12:26;;;;;;;10.85;4.60;;;21.70;80.10;;;;;;5119926;28;20036;-71
2021/07/22 04:14:52;;;;;;;12.80;4.70;;;21.60;80.20;;;;;;5120255;28;20032;-71
2021/07/22 04:17:17;;;;;;;14.20;5.70;;;21.60;80.80;;;;;;5120184;28;20028;-71
2021/07/22 04:19:43;;;;;;;8.95;5.60;;;21.50;81.00;;;;;;5119785;28;20027;-71
2021/07/22 04:22:11;;;;;;;11.05;5.78;;;21.50;81.20;;;;;;5120125;28;20024;-71
2021/07/22 04:24:36;;;;;;;9.20;5.45;;;21.60;81.60;;;;;;5119753;28;20103;-71
2021/07/22 04:27:02;;;;;;;10.82;5.47;;;21.70;81.90;;;;;;5120029;28;20089;-71
2021/07/22 04:29:28;;;;;;;11.15;4.88;;;21.90;81.40;;;;;;5119969;28;20019;-71
2021/07/22 04:31:54;;;;;;;12.80;5.07;;;22.00;81.30;;;;;;5119947;28;20403;-71
2021/07/22 04:34:19;;;;;;;9.05;5.20;;;22.00;81.30;;;;;;5119846;28;20054;-71
2021/07/22 04:36:45;;;;;;;10.02;6.38;;;22.10;81.70;;;;;;5119870;28;20405;-71
2021/07/22 04:39:10;;;;;;;9.75;6.20;;;22.10;82.20;;;;;;5119789;28;20024;-71
2021/07/22 04:41:37;;;;;;;14.07;6.70;;;22.10;82.50;;;;;;5119682;28;20027;-71
2021/07/22 04:44:02;;;;;;;10.18;6.00;;;22.20;82.80;;;;;;5119562;28;20339;-71
2021/07/22 04:46:28;;;;;;;12.15;7.50;;;22.20;82.80;;;;;;5119650;28;20012;-71
2021/07/22 04:48:54;;;;;;;11.38;6.72;;;22.20;82.90;;;;;;5119641;28;20410;-71
2021/07/22 04:51:19;;;;;;;13.77;7.28;;;22.10;82.20;;;;;;5119233;28;20446;-71
2021/07/22 04:53:45;;;;;;;11.50;6.55;;;22.00;80.90;;;;;;5119502;28;20035;-71
2021/07/22 04:56:11;;;;;;;10.52;6.75;;;22.00;80.90;;;;;;5120000;28;20024;-71
2021/07/22 04:58:36;;;;;;;12.80;6.45;;;22.10;80.60;;;;;;5119137;28;20035;-71
2021/07/22 05:01:05;;;;;;;9.73;5.75;;;22.10;80.20;;;;;;5119363;28;20103;-71
2021/07/22 05:03:31;;;;;;;13.00;6.97;;;22.20;80.40;;;;;;5119567;28;20363;-71
2021/07/22 05:05:57;;;;;;;16.95;7.38;;;22.30;80.50;;;;;;5118896;28;20015;-71
2021/07/22 05:08:22;;;;;;;14.77;6.45;;;22.30;80.10;;;;;;5118917;28;20035;-71
2021/07/22 05:10:48;;;;;;;13.65;6.68;;;22.30;80.50;;;;;;5119196;28;20031;-71
2021/07/22 05:13:14;;;;;;;12.27;7.50;;;22.30;80.60;;;;;;5118712;28;20042;-71
2021/07/22 05:15:40;;;;;;;10.43;7.28;;;22.40;79.60;;;;;;5119039;28;20034;-71
2021/07/22 05:18:06;;;;;;;11.05;7.25;;;22.50;78.90;;;;;;5119035;28;20106;-71
2021/07/22 05:20:31;;;;;;;13.40;8.15;;;22.60;79.20;;;;;;5118885;28;20030;-71
2021/07/22 05:23:00;;;;;;;11.13;6.88;;;22.70;79.10;;;;;;5118947;28;20395;-71
2021/07/22 05:25:26;;;;;;;12.90;7.07;;;22.70;78.60;;;;;;5118883;28;20046;-71
2021/07/22 05:27:52;;;;;;;8.57;7.68;;;22.80;78.80;;;;;;5118855;28;20384;-71
2021/07/22 05:30:17;;;;;;;9.15;7.20;;;22.90;78.80;;;;;;5118800;28;20118;-71
2021/07/22 05:32:43;;;;;;;12.68;7.50;;;22.90;78.30;;;;;;5118749;28;20117;-71
2021/07/22 05:35:11;;;;;;;12.30;8.43;;;22.90;78.50;;;;;;5118761;28;20023;-71
2021/07/22 05:37:37;;;;;;;12.40;7.43;;;22.90;78.00;;;;;;5118612;28;20361;-71
2021/07/22 05:40:02;;;;;;;11.10;8.07;;;22.80;78.00;;;;;;5118548;28;20023;-71
2021/07/22 05:42:28;;;;;;;10.32;7.90;;;22.90;77.90;;;;;;5117965;28;20415;-71
2021/07/22 05:44:54;;;;;;;14.10;7.40;;;22.80;78.30;;;;;;5118224;28;20093;-71
2021/07/22 05:47:19;;;;;;;10.95;7.18;;;22.70;78.00;;;;;;5118122;28;20034;-71
2021/07/22 05:49:45;;;;;;;8.55;7.55;;;22.60;78.60;;;;;;5118121;28;20032;-71
2021/07/22 05:52:11;;;;;;;10.70;7.20;;;22.50;79.30;;;;;;5118058;28;20030;-71
2021/07/22 05:54:36;;;;;;;9.82;7.43;;;22.40;79.30;;;;;;5118315;28;20035;-71
2021/07/22 05:57:02;;;;;;;8.13;6.60;;;22.40;79.10;;;;;;5118294;28;20045;-71
2021/07/22 05:59:28;;;;;;;15.05;7.30;;;22.40;80.00;;;;;;5117753;28;20030;-71
2021/07/22 06:01:53;;;;;;;10.30;6.97;;;22.50;80.00;;;;;;5117898;28;20055;-71
2021/07/22 06:04:19;;;;;;;10.25;8.40;;;22.50;79.50;;;;;;5118130;28;20039;-71
2021/07/22 06:06:45;;;;;;;11.63;7.03;;;22.50;79.00;;;;;;5117795;28;20426;-71
2021/07/22 06:09:11;;;;;;;8.45;7.22;;;22.60;80.20;;;;;;5117739;28;20024;-71
2021/07/22 06:11:37;;;;;;;10.95;8.05;;;22.70;77.60;;;;;;5118029;28;20039;-71
2021/07/22 06:14:02;;;;;;;12.70;7.80;;;22.80;78.20;;;;;;5118085;28;20031;-71
2021/07/22 06:16:30;;;;;;;8.65;7.10;;;22.80;80.20;;;;;;5117886;28;20043;-71
2021/07/22 06:18:56;;;;;;;9.77;8.13;;;22.90;79.90;;;;;;5117590;28;20042;-71
2021/07/22 06:21:22;;;;;;;12.90;7.38;;;23.00;79.20;;;;;;5117449;28;20027;-71
2021/07/22 06:23:48;;;;;;;8.80;7.22;;;23.00;79.40;;;;;;5117467;28;20049;-71
2021/07/22 06:26:13;;;;;;;10.75;7.63;;;23.10;79.90;;;;;;5117215;28;20046;-71
2021/07/22 06:28:39;;;;;;;8.40;6.80;;;23.20;77.90;;;;;;5117758;28;20103;-71
2021/07/22 06:31:05;;;;;;;12.80;8.30;;;23.30;77.60;;;;;;5117724;28;20090;-71
2021/07/22 06:33:30;;;;;;;11.00;7.97;;;23.40;77.90;;;;;;5117670;28;20312;-71
2021/07/22 06:35:56;;;;;;;11.35;8.43;;;23.30;79.70;;;;;;5117250;28;20035;-71
2021/07/22 06:38:22;;;;;;;11.13;7.97;;;23.30;79.20;;;;;;5117627;28;20024;-71
2021/07/22 06:40:47;;;;;;;8.25;7.00;;;23.30;77.30;;;;;;5116790;28;20127;-71
2021/07/22 06:43:13;;;;;;;9.02;7.75;;;23.30;77.10;;;;;;5117322;28;20130;-71
2021/07/22 06:45:40;;;;;;;8.57;7.07;;;23.40;76.80;;;;;;5117136;28;20019;-71
2021/07/22 06:48:06;;;;;;;10.25;7.65;;;23.60;76.60;;;;;;5117185;28;20023;-71
2021/07/22 06:50:33;;;;;;;13.23;7.60;;;23.70;76.20;;;;;;5117112;28;20055;-71
2021/07/22 06:53:00;;;;;;;9.80;7.90;;;23.70;75.30;;;;;;5117137;28;20431;-71
2021/07/22 06:55:26;;;;;;;8.32;7.13;;;24.30;74.30;;;;;;5117354;28;20027;-71
2021/07/22 06:57:52;;;;;;;12.20;6.97;;;24.50;73.40;;;;;;5117406;28;20023;-71
2021/07/22 07:00:17;;;;;;;10.07;7.47;;;24.70;74.00;;;;;;5117287;28;20456;-71
2021/07/22 07:02:43;;;;;;;12.57;7.65;;;24.90;73.30;;;;;;5117323;28;20435;-71
2021/07/22 07:05:09;;;;;;;10.05;6.63;;;25.10;73.60;;;;;;5117071;28;20416;-71
2021/07/22 07:07:35;;;;;;;9.98;6.60;;;25.40;73.20;;;;;;5117202;28;20016;-71
2021/07/22 07:10:01;;;;;;;10.23;6.63;;;25.60;71.30;;;;;;5117264;28;20030;-71
2021/07/22 07:12:26;;;;;;;8.13;6.32;;;25.70;71.10;;;;;;5116856;28;20023;-71
2021/07/22 07:14:52;;;;;;;9.35;7.00;;;26.00;70.10;;;;;;5117215;28;20097;-71
2021/07/22 07:17:18;;;;;;;10.73;7.20;;;26.40;70.20;;;;;;5117198;28;20027;-71
2021/07/22 07:19:44;;;;;;;8.43;6.78;;;26.40;68.90;;;;;;5116855;28;20031;-71
2021/07/22 07:22:09;;;;;;;10.48;7.22;;;26.20;70.70;;;;;;5116847;28;20408;-71
2021/07/22 07:24:35;;;;;;;11.10;6.82;;;26.20;70.20;;;;;;5117123;28;20032;-71
2021/07/22 07:27:01;;;;;;;10.15;6.30;;;26.60;70.60;;;;;;5117116;28;20107;-71
2021/07/22 07:29:26;;;;;;;10.65;6.82;;;26.60;70.00;;;;;;5117102;28;20066;-71
2021/07/22 07:31:58;;;;;;;9.50;7.18;;;26.50;69.80;;;;;;5117130;28;20020;-71
2021/07/22 07:34:23;;;;;;;10.32;6.47;;;26.30;70.00;;;;;;5117075;28;20035;-71
2021/07/22 07:36:49;;;;;;;9.98;7.38;;;26.20;71.00;;;;;;5119393;28;20019;-71
2021/07/22 07:39:16;;;;;;;9.77;6.65;;;26.40;71.40;;;;;;5120992;28;20019;-71
2021/07/22 07:41:42;;;;;;;8.65;6.50;;;26.30;70.90;;;;;;5120881;28;20049;-71
2021/07/22 07:44:08;;;;;;;13.40;7.43;;;26.80;70.40;;;;;;5120345;28;20134;-71
2021/07/22 07:46:34;;;;;;;13.27;7.40;;;27.40;66.90;;;;;;5120846;28;20099;-71
2021/07/22 07:48:59;;;;;;;12.10;7.13;;;28.20;66.50;;;;;;5120790;28;20403;-71
2021/07/22 07:51:25;;;;;;;9.07;6.93;;;28.60;63.20;;;;;;5120448;28;20103;-71
2021/07/22 07:53:51;;;;;;;11.77;6.70;;;28.90;62.10;;;;;;5120372;28;20027;-70
2021/07/22 07:56:16;;;;;;;9.90;6.88;;;29.30;63.00;;;;;;5120644;28;20068;-70
2021/07/22 07:58:42;;;;;;;7.53;6.50;;;29.60;60.40;;;;;;5120319;28;20346;-70
2021/07/22 08:01:08;;;;;;;9.85;7.55;;;29.70;60.80;;;;;;5120188;28;20026;-70
2021/07/22 08:03:33;;;;;;;9.57;6.93;;;29.80;61.00;;;;;;5120532;28;20031;-71
2021/07/22 08:05:59;;;;;;;13.43;8.00;;;29.80;61.50;;;;;;5120439;28;20020;-71
2021/07/22 08:08:25;;;;;;;10.88;7.93;;;30.00;59.30;;;;;;5120130;28;20054;-70
2021/07/22 08:10:53;;;;;;;11.88;8.30;;;30.20;59.70;;;;;;5120072;28;20023;-70
2021/07/22 08:13:18;;;;;;;11.00;7.40;;;30.20;60.50;;;;;;5120122;28;20043;-71
2021/07/22 08:15:44;;;;;;;9.35;8.18;;;30.50;61.00;;;;;;5120262;28;20110;-71
2021/07/22 08:18:11;;;;;;;10.55;7.70;;;30.70;61.00;;;;;;5120236;28;20082;-71
2021/07/22 08:20:36;;;;;;;9.13;7.72;;;30.90;59.20;;;;;;5120116;28;20024;-71
2021/07/22 08:23:02;;;;;;;8.75;7.13;;;30.90;58.20;;;;;;5120137;28;20042;-71
2021/07/22 08:25:28;;;;;;;12.65;7.75;;;30.70;59.80;;;;;;5120063;28;20020;-71
2021/07/22 08:27:53;;;;;;;9.68;7.22;;;30.50;60.60;;;;;;5120071;28;20082;-70
2021/07/22 08:30:19;;;;;;;10.43;7.82;;;30.70;59.40;;;;;;5119984;28;20030;-71
2021/07/22 08:32:45;;;;;;;9.10;7.10;;;31.10;59.40;;;;;;5119610;28;20408;-71
2021/07/22 08:35:11;;;;;;;14.48;8.43;;;31.10;59.80;;;;;;5119662;28;20027;-71
2021/07/22 08:37:36;;;;;;;9.73;7.68;;;31.40;58.90;;;;;;5119486;28;20035;-70
2021/07/22 08:40:04;;;;;;;8.65;7.45;;;31.60;58.10;;;;;;5119398;28;20062;-70
2021/07/22 08:42:40;;;;;;;12.75;7.90;;;31.60;57.90;;;;;;5119453;28;20039;-72
2021/07/22 08:45:06;;;;;;;12.35;7.78;;;31.60;57.80;;;;;;5119717;28;20035;-71
2021/07/22 08:47:32;;;;;;;13.05;7.05;;;31.70;58.40;;;;;;5118719;28;20049;-71
2021/07/22 08:49:58;;;;;;;11.75;7.65;;;32.00;56.80;;;;;;5119630;28;20102;-71
2021/07/22 08:52:24;;;;;;;11.35;7.05;;;32.10;56.50;;;;;;5119291;28;20027;-71
2021/07/22 08:54:49;;;;;;;16.35;7.80;;;32.30;58.50;;;;;;5119457;28;20030;-72
2021/07/22 08:57:17;;;;;;;9.32;7.20;;;32.30;57.10;;;;;;5119449;28;20028;-72
2021/07/22 08:59:43;;;;;;;9.13;6.93;;;32.20;57.10;;;;;;5119364;28;20039;-70
2021/07/22 09:02:20;;;;;;;12.05;7.30;;;32.40;56.30;;;;;;5119406;28;20027;-71
2021/07/22 09:04:54;;;;;;;11.80;6.88;;;32.70;55.00;;;;;;5119364;28;20031;-71
2021/07/22 09:07:20;;;;;;;11.00;7.03;;;32.70;54.00;;;;;;5119272;28;20024;-70
2021/07/22 09:10:04;;;;;;;10.80;7.10;;;32.50;56.10;;;;;;5119243;28;20065;-70
2021/07/22 09:12:36;;;;;;;9.25;7.35;;;32.50;55.00;;;;;;5118840;28;20036;-71
2021/07/22 09:15:03;;;;;;;13.80;7.43;;;32.30;57.20;;;;;;5119194;28;20316;-71
2021/07/22 09:17:29;;;;;;;8.65;7.75;;;32.00;56.90;;;;;;5118686;28;20032;-71
2021/07/22 09:19:55;;;;;;;10.00;7.95;;;32.00;57.10;;;;;;5118966;28;20028;-71
2021/07/22 09:22:33;;;;;;;10.77;7.95;;;32.00;56.10;;;;;;5118683;28;20028;-71
2021/07/22 09:24:59;;;;;;;13.32;7.90;;;32.00;55.20;;;;;;5118680;28;20020;-71
2021/07/22 09:27:34;;;;;;;11.32;8.23;;;32.30;54.60;;;;;;5118843;28;20027;-71
2021/07/22 09:30:00;;;;;;;;;;;32.50;55.80;;;;;;5119257;28;20028;-71
2021/07/22 09:32:33;;;;;;;8.30;6.72;;;32.60;56.90;;;;;;5118447;28;19937;-71
2021/07/22 09:35:05;;;;;;;9.05;7.10;;;32.70;55.10;;;;;;5118779;28;20107;-71
2021/07/22 09:37:31;;;;;;;11.05;7.45;;;33.10;55.50;;;;;;5118314;28;20032;-71
2021/07/22 09:39:56;;;;;;;9.85;6.72;;;33.20;54.50;;;;;;5118244;28;20028;-71
2021/07/22 09:42:22;;;;;;;8.32;7.30;;;33.20;54.00;;;;;;5118115;28;20090;-72
2021/07/22 09:44:48;;;;;;;8.18;7.38;;;33.20;54.40;;;;;;5118748;28;20078;-71
2021/07/22 09:47:26;;;;;;;8.57;7.07;;;33.50;54.00;;;;;;5118529;28;20069;-71
2021/07/22 09:49:52;;;;;;;7.68;6.80;;;33.60;53.10;;;;;;5118185;28;20067;-71
2021/07/22 09:52:18;;;;;;;8.70;7.38;;;33.60;54.70;;;;;;5118402;28;20063;-71
2021/07/22 09:54:43;;;;;;;11.80;8.43;;;33.40;53.60;;;;;;5118323;28;20439;-71
2021/07/22 09:57:19;;;;;;;9.70;7.30;;;33.40;53.90;;;;;;5118280;28;20031;-71
2021/07/22 09:59:47;;;;;;;11.73;8.18;;;33.40;55.80;;;;;;5116905;28;20411;-71
2021/07/22 10:02:19;;;;;;;8.90;7.15;;;33.40;52.10;;;;;;5118202;28;20024;-71
2021/07/22 10:04:59;;;;;;;8.70;6.72;;;33.60;52.60;;;;;;5118129;28;20020;-71
2021/07/22 10:07:26;;;;;;;8.75;7.07;;;33.70;53.70;;;;;;5117801;28;20320;-71
2021/07/22 10:09:53;;;;;;;10.43;7.70;;;34.00;52.00;;;;;;5117768;28;20027;-71
2021/07/22 10:12:20;;;;;;;10.88;7.35;;;33.30;52.40;;;;;;5117732;28;20419;-71
2021/07/22 10:14:53;;;;;;;9.57;7.82;;;33.10;54.50;;;;;;5118147;28;20035;-71
2021/07/22 10:17:21;;;;;;;14.07;7.60;;;33.20;52.40;;;;;;5117571;28;20050;-72
2021/07/22 10:19:48;;;;;;;10.73;7.35;;;33.10;52.60;;;;;;5111157;28;20316;-71
2021/07/22 10:22:16;;;;;;;10.25;7.43;;;33.20;53.70;;;;;;5109208;28;20121;-71
2021/07/22 10:24:42;;;;;;;8.85;7.03;;;33.10;52.50;;;;;;5117478;28;20035;-72
2021/07/22 10:27:08;;;;;;;8.85;7.05;;;33.20;53.70;;;;;;5117763;28;20027;-71
2021/07/22 10:29:35;;;;;;;10.68;7.20;;;33.30;53.70;;;;;;5117442;28;20403;-71
2021/07/22 10:32:01;;;;;;;8.73;6.90;;;33.50;53.10;;;;;;5117775;28;20028;-71
2021/07/22 10:34:30;;;;;;;8.10;6.95;;;33.50;54.10;;;;;;5117342;28;20400;-71
2021/07/22 10:36:56;;;;;;;8.50;6.53;;;33.80;54.00;;;;;;5117304;28;20028;-71
2021/07/22 10:40:09;;;;;;;9.20;6.80;;;34.00;53.10;;;;;;5117595;28;20035;-72
2021/07/22 10:42:48;;;;;;;7.97;7.18;;;34.00;51.20;;;;;;5117317;28;20063;-71
2021/07/22 10:45:20;;;;;;;12.57;7.05;;;34.00;54.40;;;;;;5117500;28;20315;-71
2021/07/22 10:48:07;;;;;;;7.57;6.43;;;33.90;52.80;;;;;;5117208;28;20411;-72
2021/07/22 10:50:42;;;;;;;9.23;7.05;;;34.10;52.70;;;;;;5117131;28;20020;-71
2021/07/22 10:53:09;;;;;;;10.57;6.43;;;34.20;52.50;;;;;;5117113;28;20432;-71
2021/07/22 10:55:45;;;;;;;8.23;6.35;;;33.90;51.90;;;;;;5117370;28;20281;-71
2021/07/22 10:58:30;;;;;;;11.05;6.88;;;33.80;54.40;;;;;;5117104;28;20038;-71
2021/07/22 11:00:56;;;;;;;7.93;6.50;;;33.50;52.40;;;;;;5117320;28;20031;-71
2021/07/22 11:06:08;;;;;;;8.20;6.68;;;33.20;53.40;;;;;;5117379;28;20023;-71
2021/07/22 11:08:36;;;;;;;9.43;6.63;;;32.50;53.30;;;;;;5117050;28;20107;-71
2021/07/22 11:11:03;;;;;;;9.48;6.72;;;32.20;57.30;;;;;;5118427;28;20027;-71
2021/07/22 11:13:44;;;;;;;8.07;6.45;;;32.40;52.80;;;;;;5121367;28;20396;-71
2021/07/22 11:16:28;;;;;;;7.28;6.55;;;32.30;53.20;;;;;;5121113;28;20036;-71
2021/07/22 11:19:14;;;;;;;7.80;6.75;;;32.90;55.60;;;;;;5121501;28;20070;-71
2021/07/22 11:21:47;;;;;;;;;;;33.30;53.80;;;;;;5121410;28;20024;-71
2021/07/22 11:24:19;;;;;;;10.50;6.63;;;33.10;52.50;;;;;;5121359;28;19903;-72
2021/07/22 11:26:49;;;;;;;9.40;6.55;;;33.10;55.30;;;;;;5120913;28;20034;-71
2021/07/22 11:29:16;;;;;;;8.68;6.38;;;33.20;53.90;;;;;;5121265;28;20085;-71
2021/07/22 11:31:46;;;;;;;10.80;6.65;;;33.40;52.70;;;;;;5121172;28;20329;-71
2021/07/22 11:34:13;;;;;;;7.88;6.22;;;33.20;52.80;;;;;;5121110;28;20028;-71
2021/07/22 11:36:39;;;;;;;9.77;7.10;;;33.10;55.80;;;;;;5121066;28;20019;-71
2021/07/22 11:39:13;;;;;;;12.02;6.40;;;32.60;52.60;;;;;;5121084;28;20035;-71
2021/07/22 11:41:39;;;;;;;8.15;6.68;;;31.80;54.60;;;;;;5120581;28;20420;-71
2021/07/22 11:44:05;;;;;;;7.93;6.22;;;31.50;57.90;;;;;;5120855;28;20135;-71
2021/07/22 11:46:38;;;;;;;7.80;7.00;;;31.60;57.00;;;;;;5120871;28;20034;-71
2021/07/22 11:49:05;;;;;;;10.00;6.80;;;31.80;55.10;;;;;;5120862;28;20047;-71
2021/07/22 11:51:31;;;;;;;10.70;6.82;;;31.70;57.30;;;;;;5120423;28;20111;-71
2021/07/22 11:53:58;;;;;;;8.77;7.38;;;31.80;58.20;;;;;;5120428;28;20153;-71
2021/07/22 11:56:24;;;;;;;9.25;7.40;;;32.00;54.70;;;;;;5120671;28;20031;-71
2021/07/22 11:58:51;;;;;;;10.43;7.65;;;31.90;55.60;;;;;;5120342;28;20024;-71
2021/07/22 12:01:17;;;;;;;9.68;7.45;;;31.60;54.10;;;;;;5120189;28;20027;-71
2021/07/22 12:03:47;;;;;;;7.57;6.57;;;31.10;56.60;;;;;;5120244;28;20411;-71
2021/07/22 12:06:13;;;;;;;9.38;7.07;;;30.60;58.30;;;;;;5120174;28;20069;-71
2021/07/22 12:08:39;;;;;;;9.57;7.32;;;30.20;58.10;;;;;;5119767;28;20038;-71
2021/07/22 12:11:05;;;;;;;8.57;6.82;;;30.00;60.70;;;;;;5120436;28;20032;-71
2021/07/22 12:13:51;;;;;;;9.38;7.72;;;29.90;60.00;;;;;;5120398;28;20374;-71
2021/07/22 12:16:22;;;;;;;10.95;7.70;;;29.80;60.30;;;;;;5120285;28;20035;-71
2021/07/22 12:18:49;;;;;;;11.60;8.00;;;29.70;61.40;;;;;;5119925;28;20416;-71
2021/07/22 12:21:23;;;;;;;9.93;7.50;;;29.60;59.10;;;;;;5120128;28;20035;-71
2021/07/22 12:23:49;;;;;;;14.00;8.65;;;29.40;59.90;;;;;;5118855;28;20020;-71
2021/07/22 12:26:16;;;;;;;8.68;7.55;;;29.30;61.50;;;;;;5120138;28;20457;-71
2021/07/22 12:28:59;;;;;;;11.77;7.60;;;29.40;61.30;;;;;;5120040;28;20027;-71
2021/07/22 12:31:25;;;;;;;9.70;7.45;;;29.60;62.50;;;;;;5120065;28;20028;-71
2021/07/22 12:34:02;;;;;;;9.60;6.88;;;29.80;60.30;;;;;;5119959;28;20069;-71
2021/07/22 12:36:32;;;;;;;10.18;7.65;;;30.10;58.60;;;;;;5119588;28;20074;-71
2021/07/22 12:39:30;;;;;;;11.52;6.90;;;30.30;60.70;;;;;;5119894;28;20024;-71
2021/07/22 12:42:09;;;;;;;11.40;8.18;;;30.40;59.70;;;;;;5103687;28;20059;-71
2021/07/22 12:44:43;;;;;;;12.10;7.10;;;30.30;58.50;;;;;;5119457;28;20101;-71
2021/07/22 12:47:29;;;;;;;8.05;6.68;;;30.20;58.80;;;;;;5119376;28;20094;-71
2021/07/22 12:49:56;;;;;;;9.95;6.95;;;30.20;60.80;;;;;;5119694;28;20397;-71